x

Northern Hawaii One - 245nm Ne Of Honolulu Hi (51000) Wave Buoy

12:50am - Wed 22nd Feb 2017 All times are HST. -10 hours from GMT.

  • Sig Wave height 7.2ft
  • Swell Direction
  • Peak Period 10s
  • Average Period 6s
  • Wind
    16mph, 20mph gusts
  • Sea Temp 73°f
  • Air Temp 70°f
  • Sea Pressure 1026.3mb
  • Northern Hawaii One - 245nm Ne Of Honolulu Hi
  • Northern Hawaii One - 245nm Ne Of Honolulu Hi

More Historic Weather Station data

Upgrade to MSW Pro to gain access to the past 30 days of data for over 8000 Wavebouys and Weather Stations around the globe.

Join Pro

Comparision Forecast

View Surf forecast
   
Wed 02/22 12:50am 7ft 10s 6s 16 20 mph 1026.3mb 73f 70f
Tue 02/21 11:50pm 7ft 10s 6s 18 20 mph 1026.8mb 73f 70f
10:50pm 7ft 10s 6s 18 22 mph 1027mb 73f 70f
9:50pm 7ft 10s 6s 20 25 mph 1027.1mb 73f 71f
8:50pm 7ft 10s 6s 20 22 mph 1027mb 73f 71f
7:50pm 7ft 10s 6s 20 25 mph 1026.3mb 73f 71f
6:50pm 7.5ft 11s 6s 20 25 mph 1025.8mb 73f 71f
5:50pm 7ft 11s 6s 20 25 mph 1025.5mb 73f 71f
4:50pm 7ft 11s 6s 20 25 mph 1025mb 73f 71f
3:50pm 7.5ft 11s 7s 20 22 mph 1024.9mb 73f 71f
2:50pm 7ft 11s 7s 18 22 mph 1024.9mb 73f 71f
1:50pm 7ft 11s 6s 16 20 mph 1025.3mb 73f 70f
12:50pm 7.5ft 11s 7s 18 22 mph 1026.2mb 74f 70f
11:50am 7.5ft 11s 7s 16 18 mph 1027.1mb 74f 70f
10:50am 8ft 11s 6s 25 29 mph 1027.3mb 74f 68f
9:50am 8ft 11s 7s 20 22 mph 1027.5mb 74f 70f
8:50am 8ft 11s 7s 22 25 mph 1026.9mb 74f 70f
7:50am 8.5ft 11s 7s 20 27 mph 1025.7mb 74f 71f
6:50am 8ft 11s 7s 22 27 mph 1025.4mb 74f 70f
5:50am 8.5ft 11s 7s 22 27 mph 1025.2mb 74f 69f
4:50am 8.5ft 11s 8s 16 20 mph 1025.5mb 74f 69f
3:50am 9ft 12s 8s 20 25 mph 1025mb 74f 69f
2:50am 9ft 12s 8s 13 18 mph 1025.2mb 74f 68f
1:50am 9ft 11s 8s 13 16 mph 1025.5mb 74f 69f
12:50am 9.5ft 12s 8s 16 20 mph 1026mb 74f 69f
Mon 02/20 11:50pm 9.5ft 12s 8s 18 22 mph 1026.2mb 74f 70f
10:50pm 11ft 12s 8s 18 22 mph 1026.3mb 74f 70f
9:50pm 12.5ft 12s 9s 20 25 mph 1026.3mb 74f 70f
8:50pm 11ft 12s 8s 18 22 mph 1026.1mb 74f 70f
7:50pm 11.5ft 13s 8s 16 22 mph 1025.6mb 74f 70f
6:50pm 12.5ft 13s 9s 18 22 mph 1024.7mb 74f 70f
5:50pm 13ft 13s 9s 22 27 mph 1023.5mb 74f 70f
4:50pm 12.5ft 13s 9s 20 25 mph 1023.2mb 74f 69f
3:50pm 12.5ft 13s 9s 18 22 mph 1023.2mb 74f 70f
2:50pm 12ft 13s 9s 16 20 mph 1023.5mb 74f 70f
1:50pm 12.5ft 14s 9s 18 22 mph 1023.8mb 74f 69f
12:50pm 14.5ft 13s 9s 18 22 mph 1024.3mb 74f 69f
11:50am 14ft 14s 9s 18 22 mph 1025.1mb 74f 69f
10:50am 17.5ft 14s 10s 18 22 mph 1025.7mb 74f 69f
9:50am 15ft 13s 9s 18 22 mph 1025.8mb 74f 69f
8:50am 17.5ft 14s 10s 18 22 mph 1025.4mb 74f 68f
7:50am 17ft 14s 10s 20 27 mph 1025.1mb 74f 68f
6:50am 16.5ft 13s 10s 20 25 mph 1024.4mb 74f 68f
5:50am 17ft 15s 10s 20 27 mph 1023.4mb 74f 68f
4:50am 17.5ft 14s 10s 20 25 mph 1023mb 74f 68f
3:50am 18.5ft 15s 10s 22 27 mph 1022.5mb 74f 69f
2:50am 19ft 15s 11s 20 25 mph 1022.9mb 74f 69f
1:50am 17ft 14s 10s 20 22 mph 1023.2mb 74f 69f
12:50am 17ft 14s 10s 20 25 mph 1024mb 74f 69f
Sun 02/19 11:50pm 17ft 14s 9s 18 22 mph 1024.2mb 74f 68f
10:50pm 18.5ft 14s 10s 20 27 mph 1024.3mb 74f 68f
9:50pm 17.5ft 13s 10s 22 27 mph 1024.1mb 74f 69f
8:50pm 17ft 13s 10s 22 29 mph 1023.9mb 74f 69f
7:50pm 17.5ft 13s 10s 20 25 mph 1023.3mb 74f 69f
6:50pm 19.5ft 14s 10s 18 25 mph 1022.6mb 74f 70f
5:50pm 17.5ft 13s 10s 18 22 mph 1022.1mb 74f 69f
4:50pm 15.5ft 14s 9s 20 25 mph 1021.4mb 74f 69f
3:50pm 15ft 11s 9s 18 22 mph 1020.9mb 74f 69f
2:50pm 13.5ft 11s 8s 20 25 mph 1020.8mb 74f 69f
1:50pm 12ft 11s 8s 18 22 mph 1021.1mb 74f 69f
12:50pm 11.5ft 11s 8s 22 27 mph 1021.5mb 74f 70f
11:50am 10.5ft 10s 7s 20 25 mph 1022.2mb 74f 70f
10:50am 9.5ft 11s 7s 20 25 mph 1022.3mb 73f 70f
9:50am 9ft 8s 7s 22 27 mph 1022mb 73f 70f
8:50am 8ft 10s 6s 20 25 mph 1021.8mb 73f 71f
7:50am 7.5ft 11s 6s 20 22 mph 1021.2mb 73f 70f
6:50am 7ft 7s 6s 22 29 mph 1020.6mb 73f 70f
5:50am 6ft 11s 6s 18 22 mph 1019.9mb 73f 71f
4:50am 6ft 11s 6s 18 22 mph 1019.1mb 73f 71f
3:50am 5.5ft 12s 6s 18 22 mph 1018.7mb 73f 71f
2:50am 5.5ft 12s 6s 20 25 mph 1018.7mb 73f 71f